Time;durP1;ratioP1;P1;durP2;ratioP2;P2;SDS_P1;SDS_P2;PMS_P1;PMS_P2;Temp;Humidity;BMP_temperature;BMP_pressure;BME280_temperature;BME280_humidity;BME280_pressure;Samples;Min_cycle;Max_cycle;Signal;HPM_P1;HPM_P2
2024/01/02 00:01:41;;;;;;;0.60;0.60;;;;;;;-1.52;87.21;99786.47;5067059;28;20023;-66
2024/01/02 00:04:07;;;;;;;0.60;0.60;;;;;;;-1.37;85.95;99765.72;5066747;28;20017;-65
2024/01/02 00:06:32;;;;;;;1.25;0.70;;;;;;;-1.53;86.71;99800.03;5049113;28;20466;-66
2024/01/02 00:08:57;;;;;;;0.60;0.60;;;;;;;-1.39;85.69;99774.13;5066895;28;20025;-66
2024/01/02 00:11:23;;;;;;;0.70;0.70;;;;;;;-1.55;86.77;99794.00;5066951;28;20083;-66
2024/01/02 00:13:48;;;;;;;0.55;0.55;;;;;;;-1.49;87.01;99790.81;5066608;28;20539;-66
2024/01/02 00:16:14;;;;;;;0.73;0.73;;;;;;;-1.49;86.60;99806.09;5066823;28;20033;-66
2024/01/02 00:18:39;;;;;;;0.95;0.60;;;;;;;-1.26;84.76;99791.50;5066632;28;20096;-66
2024/01/02 00:21:05;;;;;;;0.50;0.50;;;;;;;-1.34;84.07;99787.84;5066505;28;20037;-66
2024/01/02 00:23:30;;;;;;;1.88;0.70;;;;;;;-1.37;84.12;99782.66;5066708;28;20029;-65
2024/01/02 00:25:56;;;;;;;0.90;0.90;;;;;;;-1.41;84.54;99784.28;5066445;28;20051;-66
2024/01/02 00:28:21;;;;;;;0.50;0.50;;;;;;;-1.30;82.98;99799.00;5065960;28;20029;-66
2024/01/02 00:30:46;;;;;;;0.68;0.68;;;;;;;-1.40;83.33;99762.19;5048147;28;20109;-66
2024/01/02 00:33:12;;;;;;;1.58;1.48;;;;;;;-1.42;83.88;99771.50;5066032;28;20021;-67
2024/01/02 00:35:37;;;;;;;0.82;0.82;;;;;;;-1.32;83.50;99795.53;5048416;28;20043;-66
2024/01/02 00:38:03;;;;;;;0.57;0.57;;;;;;;-1.47;83.69;99768.78;5066114;28;20025;-66
2024/01/02 00:40:29;;;;;;;0.60;0.60;;;;;;;-1.53;84.05;99789.84;5066204;28;20029;-67
2024/01/02 00:42:55;;;;;;;0.60;0.60;;;;;;;-1.52;84.16;99763.56;5066040;28;20048;-66
2024/01/02 00:45:20;;;;;;;0.80;0.80;;;;;;;-1.38;83.45;99789.47;5066205;28;20032;-66
2024/01/02 00:47:45;;;;;;;0.95;0.60;;;;;;;-1.36;82.70;99804.78;5066194;28;20029;-66
2024/01/02 00:50:11;;;;;;;0.50;0.50;;;;;;;-1.34;82.00;99764.09;5066074;28;20354;-67
2024/01/02 00:52:36;;;;;;;0.50;0.50;;;;;;;-1.46;82.79;99770.53;5066068;28;20028;-66
2024/01/02 00:55:03;;;;;;;0.50;0.50;;;;;;;-1.31;81.64;99775.19;5065408;28;20059;-66
2024/01/02 00:57:29;;;;;;;0.55;0.55;;;;;;;-1.34;81.90;99780.19;5065854;28;20039;-66
2024/01/02 00:59:54;;;;;;;0.80;0.80;;;;;;;-1.47;82.15;99781.50;5065842;28;20056;-66
2024/01/02 01:02:19;;;;;;;0.75;0.75;;;;;;;-1.57;83.37;99789.69;5047971;28;20025;-67
2024/01/02 01:04:45;;;;;;;0.70;0.70;;;;;;;-1.48;82.42;99763.63;5065694;28;20557;-67
2024/01/02 01:07:11;;;;;;;0.77;0.77;;;;;;;-1.60;83.58;99784.50;5065709;28;20500;-67
2024/01/02 01:09:37;;;;;;;1.05;1.05;;;;;;;-1.56;83.87;99781.22;5065711;28;20036;-66
2024/01/02 01:12:04;;;;;;;0.60;0.60;;;;;;;-1.23;81.81;99769.50;5065795;28;20084;-66
2024/01/02 01:14:29;;;;;;;0.57;0.57;;;;;;;-1.41;82.07;99765.56;5047519;28;20091;-66
2024/01/02 01:16:54;;;;;;;0.77;0.77;;;;;;;-1.40;82.29;99762.19;5065558;28;20439;-67
2024/01/02 01:19:20;;;;;;;0.50;0.50;;;;;;;-1.28;81.22;99761.72;5047730;28;20112;-66
2024/01/02 01:21:45;;;;;;;0.80;0.80;;;;;;;-1.44;82.04;99766.34;5047525;28;20433;-66
2024/01/02 01:24:10;;;;;;;0.70;0.70;;;;;;;-1.44;81.91;99778.22;5065309;28;20128;-66
2024/01/02 01:26:36;;;;;;;0.60;0.60;;;;;;;-1.52;82.38;99748.28;5047519;28;20071;-66
2024/01/02 01:29:02;;;;;;;0.93;0.93;;;;;;;-1.48;82.58;99753.47;5064882;28;20108;-66
2024/01/02 01:31:27;;;;;;;0.95;0.73;;;;;;;-1.45;82.30;99753.59;5065227;28;20083;-67
2024/01/02 01:33:52;;;;;;;0.52;0.52;;;;;;;-1.46;82.08;99773.06;5065480;28;20047;-67
2024/01/02 01:36:18;;;;;;;0.50;0.50;;;;;;;-1.57;82.36;99738.78;5065413;28;20055;-67
2024/01/02 01:38:43;;;;;;;0.65;0.65;;;;;;;-1.45;82.59;99777.34;5065194;28;20020;-67
2024/01/02 01:41:09;;;;;;;2.05;1.33;;;;;;;-1.54;82.78;99761.78;5047557;28;20071;-67
2024/01/02 01:43:35;;;;;;;1.02;1.02;;;;;;;-1.44;81.93;99748.53;5064979;28;20033;-66
2024/01/02 01:46:01;;;;;;;0.60;0.60;;;;;;;-1.44;81.81;99746.00;5065592;28;20020;-67
2024/01/02 01:48:27;;;;;;;0.50;0.50;;;;;;;-1.39;81.36;99751.22;5065072;28;20017;-67
2024/01/02 01:50:53;;;;;;;0.60;0.60;;;;;;;-1.44;81.69;99746.00;5064991;28;20035;-67
2024/01/02 01:53:18;;;;;;;1.20;1.05;;;;;;;-1.36;81.02;99761.50;5065073;28;20021;-67
2024/01/02 01:55:44;;;;;;;0.90;0.90;;;;;;;-1.48;81.60;99768.72;5047209;28;20025;-67
2024/01/02 01:58:09;;;;;;;0.95;0.70;;;;;;;-1.40;81.59;99759.66;5064389;28;20027;-67
2024/01/02 02:00:35;;;;;;;0.73;0.73;;;;;;;-1.53;82.26;99774.56;5065075;28;20025;-68
2024/01/02 02:03:02;;;;;;;0.75;0.75;;;;;;;-1.50;82.25;99756.84;5064860;28;20389;-66
2024/01/02 02:05:29;;;;;;;0.60;0.60;;;;;;;-1.55;82.17;99788.91;5065225;28;20083;-67
2024/01/02 02:07:55;;;;;;;0.50;0.50;;;;;;;-1.56;82.15;99750.69;5064697;28;20455;-67
2024/01/02 02:10:21;;;;;;;0.50;0.50;;;;;;;-1.39;81.56;99763.94;5065061;28;20481;-65
2024/01/02 02:12:46;;;;;;;0.55;0.55;;;;;;;-1.54;82.02;99752.47;5046953;28;20023;-66
2024/01/02 02:15:12;;;;;;;0.60;0.60;;;;;;;-1.59;82.34;99748.03;5046401;28;20044;-66
2024/01/02 02:17:37;;;;;;;0.50;0.50;;;;;;;-1.48;81.94;99758.56;5064782;28;20385;-66
2024/01/02 02:20:03;;;;;;;0.95;0.95;;;;;;;-1.35;80.75;99747.06;5064930;28;20067;-66
2024/01/02 02:22:41;;;;;;;1.48;0.88;;;;;;;-1.32;81.11;99748.00;5064842;28;20104;-66
2024/01/02 02:25:08;;;;;;;0.70;0.70;;;;;;;-1.54;81.52;99729.56;5064813;28;20021;-66
2024/01/02 02:27:33;;;;;;;0.60;0.60;;;;;;;-1.53;81.90;99728.72;5064718;28;20029;-66
2024/01/02 02:30:01;;;;;;;0.55;0.55;;;;;;;-1.69;82.50;99735.03;5064404;28;20023;-66
2024/01/02 02:32:26;;;;;;;0.90;0.90;;;;;;;-1.56;81.94;99766.84;5064788;28;20484;-67
2024/01/02 02:34:51;;;;;;;1.15;1.05;;;;;;;-1.61;82.14;99745.44;5064767;28;20025;-66
2024/01/02 02:37:17;;;;;;;0.73;0.70;;;;;;;-1.50;81.87;99740.69;5046440;28;20025;-66
2024/01/02 02:39:42;;;;;;;5.03;1.52;;;;;;;-1.66;81.88;99729.19;5064749;28;20017;-67
2024/01/02 02:42:07;;;;;;;0.50;0.50;;;;;;;-1.43;81.04;99742.63;5064596;28;20017;-66
2024/01/02 02:44:33;;;;;;;0.70;0.70;;;;;;;-1.54;81.48;99736.31;5046621;28;20492;-67
2024/01/02 02:46:59;;;;;;;1.02;1.02;;;;;;;-1.59;82.08;99753.13;5064573;28;20059;-66
2024/01/02 02:49:25;;;;;;;0.95;0.82;;;;;;;-1.44;81.46;99753.63;5064389;28;20021;-67
2024/01/02 02:51:50;;;;;;;0.90;0.90;;;;;;;-1.50;80.88;99741.56;5064440;28;20025;-66
2024/01/02 02:54:15;;;;;;;0.70;0.70;;;;;;;-1.62;81.79;99748.81;5064601;28;20025;-66
2024/01/02 02:56:43;;;;;;;0.90;0.90;;;;;;;-1.48;81.09;99763.63;5064441;28;20087;-66
2024/01/02 02:59:09;;;;;;;0.80;0.80;;;;;;;-1.46;80.78;99780.72;5064435;28;20485;-67
2024/01/02 03:01:35;;;;;;;0.60;0.60;;;;;;;-1.65;81.68;99753.81;5064384;28;20074;-67
2024/01/02 03:04:00;;;;;;;0.50;0.50;;;;;;;-1.66;81.99;99744.47;5064458;28;20116;-67
2024/01/02 03:06:25;;;;;;;0.60;0.60;;;;;;;-1.41;81.08;99752.84;5064539;28;20485;-67
2024/01/02 03:08:51;;;;;;;0.80;0.80;;;;;;;-1.55;81.12;99757.53;5064362;28;20021;-67
2024/01/02 03:11:17;;;;;;;0.77;0.77;;;;;;;-1.52;81.00;99755.91;5064341;28;20032;-67
2024/01/02 03:13:42;;;;;;;0.63;0.60;;;;;;;-1.53;81.09;99764.38;5064275;28;20036;-67
2024/01/02 03:16:09;;;;;;;0.68;0.68;;;;;;;-1.48;81.07;99753.47;5064133;28;20400;-67
2024/01/02 03:18:35;;;;;;;0.50;0.50;;;;;;;-1.66;81.89;99768.22;5065685;28;20048;-67
2024/01/02 03:21:00;;;;;;;0.73;0.73;;;;;;;-1.43;80.62;99755.34;5067806;28;20025;-67
2024/01/02 03:23:25;;;;;;;0.82;0.82;;;;;;;-1.43;79.99;99772.28;5068000;28;20020;-68
2024/01/02 03:25:51;;;;;;;0.50;0.50;;;;;;;-1.50;80.39;99756.84;5067763;28;20040;-67
2024/01/02 03:28:16;;;;;;;1.48;1.05;;;;;;;-1.22;78.89;99753.38;5067543;28;20021;-68
2024/01/02 03:30:42;;;;;;;0.60;0.60;;;;;;;-1.44;79.27;99753.63;5067678;28;20075;-68
2024/01/02 03:33:07;;;;;;;0.68;0.68;;;;;;;-1.54;79.99;99760.13;5049617;28;20027;-67
2024/01/02 03:35:33;;;;;;;0.73;0.73;;;;;;;-1.51;79.95;99751.69;5067805;28;20020;-68
2024/01/02 03:37:58;;;;;;;0.43;0.43;;;;;;;-1.52;80.29;99739.78;5067455;28;20071;-67
2024/01/02 03:40:23;;;;;;;1.20;1.10;;;;;;;-1.47;79.90;99753.50;5067723;28;20032;-67
2024/01/02 03:42:49;;;;;;;1.23;1.15;;;;;;;-1.56;80.12;99749.00;5049823;28;20037;-68
2024/01/02 03:45:14;;;;;;;0.60;0.60;;;;;;;-1.56;80.15;99749.00;5067424;28;20040;-67
2024/01/02 03:47:40;;;;;;;0.50;0.50;;;;;;;-1.51;80.40;99759.34;5067515;28;20028;-67
2024/01/02 03:50:06;;;;;;;1.50;1.40;;;;;;;-1.53;80.68;99753.31;5067538;28;20469;-67
2024/01/02 03:52:31;;;;;;;0.65;0.65;;;;;;;-1.53;79.73;99741.47;5067329;28;20071;-67
2024/01/02 03:54:57;;;;;;;1.00;1.00;;;;;;;-1.46;79.84;99749.28;5049492;28;20021;-67
2024/01/02 03:57:23;;;;;;;1.00;0.90;;;;;;;-1.07;77.86;99753.81;5067133;28;20447;-68
2024/01/02 03:59:48;;;;;;;1.45;1.35;;;;;;;-1.42;78.01;99736.69;5067273;28;20021;-67
2024/01/02 04:02:14;;;;;;;1.13;1.13;;;;;;;-1.55;79.64;99753.28;5067168;28;20119;-67
2024/01/02 04:04:39;;;;;;;0.60;0.60;;;;;;;-1.72;80.40;99734.06;5067066;28;20025;-67
2024/01/02 04:07:05;;;;;;;0.93;0.93;;;;;;;-1.72;80.78;99790.06;5049219;28;20032;-67
2024/01/02 04:09:30;;;;;;;0.88;0.85;;;;;;;-1.34;77.98;99716.53;5049077;28;20021;-68
2024/01/02 04:11:55;;;;;;;0.60;0.60;;;;;;;-1.47;78.74;99742.47;5067023;28;20060;-68
2024/01/02 04:14:21;;;;;;;1.58;1.30;;;;;;;-1.17;77.67;99757.81;5066582;28;20032;-68
2024/01/02 04:16:46;;;;;;;1.00;0.95;;;;;;;-1.56;78.80;99733.75;5067075;28;20483;-68
2024/01/02 04:19:12;;;;;;;1.35;1.00;;;;;;;-1.59;79.21;99755.69;5066839;28;20017;-68
2024/01/02 04:21:37;;;;;;;1.60;1.50;;;;;;;-1.31;78.01;99728.50;5066938;28;20085;-67
2024/01/02 04:24:03;;;;;;;0.60;0.60;;;;;;;-1.53;78.06;99723.66;5048873;28;20385;-67
2024/01/02 04:26:28;;;;;;;0.82;0.73;;;;;;;-1.66;79.22;99714.78;5066804;28;20055;-68
2024/01/02 04:28:53;;;;;;;0.65;0.65;;;;;;;-1.69;80.36;99734.19;5066309;28;20090;-67
2024/01/02 04:31:19;;;;;;;1.25;0.93;;;;;;;-1.44;79.53;99742.56;5065466;28;20128;-67
2024/01/02 04:33:44;;;;;;;2.25;1.10;;;;;;;-1.66;79.39;99726.66;5066714;28;20033;-67
2024/01/02 04:36:10;;;;;;;1.05;0.90;;;;;;;-1.38;79.01;99713.06;5066679;28;20044;-67
2024/01/02 04:38:35;;;;;;;0.60;0.60;;;;;;;-1.55;78.77;99722.72;5048398;28;20058;-67
2024/01/02 04:41:02;;;;;;;0.80;0.80;;;;;;;-1.45;78.85;99711.13;5066413;28;20020;-66
2024/01/02 04:43:27;;;;;;;1.05;0.93;;;;;;;-1.53;78.92;99750.78;5066175;28;20048;-66
2024/01/02 04:45:53;;;;;;;1.30;1.20;;;;;;;-1.47;78.78;99720.41;5066294;28;20020;-68
2024/01/02 04:48:18;;;;;;;1.40;0.98;;;;;;;-1.56;78.18;99728.66;5066323;28;20035;-66
2024/01/02 04:50:44;;;;;;;0.50;0.50;;;;;;;-1.55;78.43;99719.34;5066357;28;20078;-67
2024/01/02 04:53:09;;;;;;;2.05;1.13;;;;;;;-1.62;79.29;99708.09;5066096;28;20016;-68
2024/01/02 04:55:34;;;;;;;0.95;0.95;;;;;;;-1.61;79.41;99737.81;5048329;28;20032;-68
2024/01/02 04:58:02;;;;;;;1.38;1.10;;;;;;;-1.30;78.19;99754.03;5066060;28;20033;-68
2024/01/02 05:00:27;;;;;;;0.60;0.60;;;;;;;-1.52;78.25;99747.44;5066063;28;20472;-68
2024/01/02 05:02:53;;;;;;;3.78;0.75;;;;;;;-1.73;79.35;99734.91;5065995;28;20092;-68
2024/01/02 05:05:18;;;;;;;1.40;0.95;;;;;;;-1.70;79.93;99735.00;5065955;28;20021;-67
2024/01/02 05:07:43;;;;;;;0.98;0.88;;;;;;;-1.78;80.15;99722.03;5065549;28;20072;-67
2024/01/02 05:10:09;;;;;;;0.80;0.80;;;;;;;-1.76;79.95;99726.34;5066007;28;20358;-67
2024/01/02 05:12:34;;;;;;;0.60;0.60;;;;;;;-1.62;79.20;99743.75;5065671;28;20085;-67
2024/01/02 05:15:00;;;;;;;0.80;0.80;;;;;;;-1.68;79.06;99708.78;5065622;28;20036;-67
2024/01/02 05:17:25;;;;;;;1.30;1.17;;;;;;;-1.54;78.90;99772.84;5065676;28;20447;-67
2024/01/02 05:19:51;;;;;;;1.05;1.05;;;;;;;-1.79;79.56;99716.06;5065803;28;20076;-67
2024/01/02 05:22:16;;;;;;;0.60;0.60;;;;;;;-1.92;79.11;99678.38;5065892;28;20032;-67
2024/01/02 05:24:42;;;;;;;0.82;0.82;;;;;;;-1.68;79.47;99708.78;5047681;28;20029;-67
2024/01/02 05:27:07;;;;;;;1.00;0.90;;;;;;;-1.62;78.71;99716.59;5065523;28;20052;-67
2024/01/02 05:29:33;;;;;;;0.77;0.77;;;;;;;-1.75;78.93;99707.72;5065275;28;20036;-68
2024/01/02 05:31:58;;;;;;;0.60;0.60;;;;;;;-1.78;79.18;99733.09;5047381;28;20078;-67
2024/01/02 05:34:24;;;;;;;0.60;0.60;;;;;;;-1.38;77.16;99697.78;5047338;28;20025;-67
2024/01/02 05:36:49;;;;;;;0.80;0.80;;;;;;;-1.40;76.92;99699.41;5065281;28;20427;-67
2024/01/02 05:39:14;;;;;;;0.68;0.68;;;;;;;-1.68;77.87;99713.00;5064996;28;20481;-67
2024/01/02 05:41:40;;;;;;;0.85;0.85;;;;;;;-1.82;78.44;99715.97;5065358;28;20028;-66
2024/01/02 05:44:05;;;;;;;0.63;0.63;;;;;;;-1.93;79.32;99697.00;5065311;28;20025;-66
2024/01/02 05:46:31;;;;;;;7.32;1.25;;;;;;;-1.78;78.79;99707.66;5065504;28;20075;-68
2024/01/02 05:48:56;;;;;;;0.52;0.52;;;;;;;-1.74;78.37;99713.66;5047353;28;20115;-66
2024/01/02 05:51:21;;;;;;;0.70;0.60;;;;;;;-2.02;78.73;99673.00;5065338;28;20025;-67
2024/01/02 05:53:47;;;;;;;2.03;1.75;;;;;;;-2.07;79.01;99683.81;5047080;28;20021;-67
2024/01/02 05:56:12;;;;;;;5.07;1.45;;;;;;;-1.74;78.73;99703.50;5065308;28;20025;-66
2024/01/02 05:58:37;;;;;;;0.90;0.90;;;;;;;-1.79;78.75;99694.88;5047008;28;20017;-67
2024/01/02 06:01:03;;;;;;;0.50;0.50;;;;;;;-1.84;78.70;99697.28;5065419;28;20044;-66
2024/01/02 06:03:28;;;;;;;1.50;1.27;;;;;;;-1.47;77.63;99710.22;5065112;28;20460;-66
2024/01/02 06:05:53;;;;;;;0.88;0.88;;;;;;;-1.74;77.90;99693.31;5065209;28;20084;-67
2024/01/02 06:08:21;;;;;;;0.70;0.70;;;;;;;-1.70;78.57;99700.25;5046928;28;20036;-67
2024/01/02 06:10:46;;;;;;;0.50;0.50;;;;;;;-1.90;78.55;99699.63;5047259;28;20056;-67
2024/01/02 06:13:13;;;;;;;1.27;1.00;;;;;;;-1.87;78.81;99720.09;5064702;28;20028;-67
2024/01/02 06:15:39;;;;;;;0.82;0.82;;;;;;;-1.90;78.57;99700.47;5064855;28;20028;-66
2024/01/02 06:18:04;;;;;;;3.33;1.58;;;;;;;-1.68;78.46;99706.25;5064835;28;20033;-67
2024/01/02 06:20:30;;;;;;;0.80;0.80;;;;;;;-1.77;77.83;99706.81;5064995;28;20041;-66
2024/01/02 06:22:55;;;;;;;2.25;1.30;;;;;;;-1.80;77.79;99688.91;5047078;28;20043;-67
2024/01/02 06:25:21;;;;;;;2.28;1.30;;;;;;;-1.66;76.45;99699.50;5065191;28;20425;-67
2024/01/02 06:27:46;;;;;;;2.05;1.10;;;;;;;-1.53;76.33;99693.09;5047221;28;20023;-68
2024/01/02 06:30:12;;;;;;;0.98;0.98;;;;;;;-1.92;77.91;99697.03;5064563;28;20497;-67
2024/01/02 06:32:37;;;;;;;1.40;1.27;;;;;;;-1.81;77.71;99699.91;5047045;28;20028;-68
2024/01/02 06:35:03;;;;;;;2.05;1.75;;;;;;;-1.96;78.10;99712.13;5065010;28;20052;-67
2024/01/02 06:37:29;;;;;;;0.88;0.88;;;;;;;-1.93;77.99;99727.53;5046968;28;20083;-66
2024/01/02 06:39:54;;;;;;;1.35;1.25;;;;;;;-1.89;77.95;99698.81;5064829;28;20068;-67
2024/01/02 06:42:20;;;;;;;1.05;0.80;;;;;;;-2.07;78.62;99725.41;5046965;28;20481;-66
2024/01/02 06:44:45;;;;;;;0.95;0.68;;;;;;;-1.81;77.79;99722.81;5064602;28;20035;-68
2024/01/02 06:47:11;;;;;;;1.33;1.23;;;;;;;-1.92;77.56;99694.50;5046203;28;20067;-68
2024/01/02 06:49:36;;;;;;;0.60;0.60;;;;;;;-1.99;78.00;99720.56;5063559;28;20029;-67
2024/01/02 06:52:02;;;;;;;0.93;0.93;;;;;;;-2.09;78.98;99690.56;5064887;28;20025;-67
2024/01/02 06:54:27;;;;;;;0.82;0.82;;;;;;;-2.02;78.25;99688.25;5067512;28;20017;-67
2024/01/02 06:56:52;;;;;;;0.65;0.65;;;;;;;-2.11;78.80;99718.50;5068602;28;20029;-67
2024/01/02 06:59:18;;;;;;;7.50;1.73;;;;;;;-2.14;79.26;99708.22;5068412;28;20017;-67
2024/01/02 07:01:44;;;;;;;0.70;0.70;;;;;;;-2.26;79.80;99719.72;5068499;28;20021;-67
2024/01/02 07:04:09;;;;;;;1.25;1.15;;;;;;;-1.79;77.42;99731.34;5068631;28;20032;-67
2024/01/02 07:06:35;;;;;;;1.13;1.02;;;;;;;-1.95;78.45;99706.25;5068468;28;20503;-67
2024/01/02 07:09:00;;;;;;;0.90;0.90;;;;;;;-2.07;79.58;99729.59;5068129;28;20048;-66
2024/01/02 07:11:25;;;;;;;1.98;1.83;;;;;;;-1.92;79.03;99719.06;5068509;28;20032;-66
2024/01/02 07:13:51;;;;;;;0.85;0.85;;;;;;;-1.79;77.55;99700.81;5067871;28;20052;-66
2024/01/02 07:16:16;;;;;;;1.40;1.30;;;;;;;-1.83;77.99;99706.63;5068368;28;20028;-67
2024/01/02 07:18:41;;;;;;;0.75;0.75;;;;;;;-1.85;77.92;99718.44;5068293;28;20036;-67
2024/01/02 07:21:08;;;;;;;2.55;2.20;;;;;;;-2.26;79.04;99726.47;5068339;28;20549;-68
2024/01/02 07:23:34;;;;;;;0.93;0.93;;;;;;;-2.32;79.45;99704.28;5050229;28;20029;-66
2024/01/02 07:25:59;;;;;;;1.08;0.98;;;;;;;-1.94;78.36;99731.75;5068275;28;20028;-67
2024/01/02 07:28:25;;;;;;;1.52;1.35;;;;;;;-1.92;77.29;99708.91;5049957;28;20447;-68
2024/01/02 07:30:51;;;;;;;0.80;0.80;;;;;;;-2.31;78.93;99733.97;5049759;28;20059;-67
2024/01/02 07:33:16;;;;;;;0.68;0.68;;;;;;;-2.18;78.51;99722.50;5067930;28;20032;-67
2024/01/02 07:35:42;;;;;;;1.42;1.33;;;;;;;-2.02;78.87;99723.00;5067927;28;20020;-68
2024/01/02 07:38:08;;;;;;;0.75;0.70;;;;;;;-1.84;76.91;99712.53;5067331;28;20058;-67
2024/01/02 07:40:33;;;;;;;1.20;1.10;;;;;;;-2.02;77.85;99713.69;5049416;28;20526;-67
2024/01/02 07:42:58;;;;;;;0.65;0.65;;;;;;;-2.32;78.90;99732.25;5067564;28;20021;-67
2024/01/02 07:45:24;;;;;;;2.42;1.92;;;;;;;-1.79;77.20;99736.44;5067821;28;20051;-67
2024/01/02 07:47:49;;;;;;;1.75;1.65;;;;;;;-2.15;78.26;99740.41;5067668;28;20028;-68
2024/01/02 07:50:15;;;;;;;0.82;0.82;;;;;;;-2.23;78.55;99731.66;5067463;28;20547;-67
2024/01/02 07:52:40;;;;;;;1.15;1.13;;;;;;;-2.40;79.34;99743.81;5049560;28;20400;-68
2024/01/02 07:55:08;;;;;;;0.50;0.50;;;;;;;-2.04;77.39;99735.66;5067443;28;20071;-68
2024/01/02 07:57:34;;;;;;;1.05;1.05;;;;;;;-2.25;79.14;99753.63;5067534;28;20032;-67
2024/01/02 07:59:59;;;;;;;1.50;1.23;;;;;;;-2.17;78.03;99747.13;5067168;28;20021;-68
2024/01/02 08:02:24;;;;;;;1.00;0.90;;;;;;;-2.35;78.41;99733.81;5067376;28;20036;-68
2024/01/02 08:04:53;;;;;;;2.05;0.80;;;;;;;-2.30;78.72;99737.38;5067222;28;20047;-68
2024/01/02 08:07:18;;;;;;;1.17;0.73;;;;;;;-2.24;77.93;99725.69;5067472;28;20021;-67
2024/01/02 08:09:43;;;;;;;1.75;1.63;;;;;;;-1.97;77.10;99774.03;5067275;28;20094;-67
2024/01/02 08:12:09;;;;;;;1.23;0.75;;;;;;;-1.98;76.20;99741.78;5067359;28;20480;-68
2024/01/02 08:14:34;;;;;;;0.68;0.68;;;;;;;-2.01;76.00;99740.84;5066378;28;20036;-68
2024/01/02 08:17:00;;;;;;;0.60;0.60;;;;;;;-2.23;77.02;99767.28;5067054;28;20020;-67
2024/01/02 08:19:25;;;;;;;0.60;0.60;;;;;;;-2.30;77.29;99763.66;5067131;28;20024;-68
2024/01/02 08:21:50;;;;;;;3.55;1.70;;;;;;;-2.27;76.86;99791.72;5066974;28;20033;-69
2024/01/02 08:24:16;;;;;;;1.38;1.23;;;;;;;-2.00;75.42;99797.69;5048666;28;20060;-68
2024/01/02 08:26:41;;;;;;;1.55;1.10;;;;;;;-2.23;76.24;99749.47;5048964;28;20108;-68
2024/01/02 08:29:06;;;;;;;1.65;1.33;;;;;;;-2.31;77.40;99749.22;5066592;28;20021;-69
2024/01/02 08:31:32;;;;;;;0.75;0.75;;;;;;;-2.19;77.03;99755.53;5066591;28;20045;-67
2024/01/02 08:33:57;;;;;;;1.05;1.05;;;;;;;-2.33;76.94;99737.28;5066828;28;20029;-67
2024/01/02 08:36:23;;;;;;;0.75;0.75;;;;;;;-2.25;77.43;99749.41;5066344;28;20055;-68
2024/01/02 08:38:49;;;;;;;0.65;0.65;;;;;;;-2.36;76.94;99758.34;5066443;28;20028;-66
2024/01/02 08:41:14;;;;;;;1.50;1.38;;;;;;;-2.10;75.95;99772.75;5048627;28;20029;-67
2024/01/02 08:43:39;;;;;;;0.70;0.70;;;;;;;-2.42;77.27;99736.16;5066075;28;20044;-66
2024/01/02 08:46:05;;;;;;;0.60;0.60;;;;;;;-2.44;77.22;99730.13;5066707;28;20025;-67
2024/01/02 08:48:31;;;;;;;2.38;2.17;;;;;;;-2.44;77.67;99754.69;5066214;28;20052;-66
2024/01/02 08:50:56;;;;;;;1.20;1.05;;;;;;;-2.08;76.23;99743.16;5066417;28;20025;-65
2024/01/02 08:53:21;;;;;;;0.90;0.90;;;;;;;-2.12;76.20;99767.63;5065979;28;20025;-66
2024/01/02 08:55:47;;;;;;;1.45;1.27;;;;;;;-2.36;77.05;99786.31;5048022;28;20532;-67
2024/01/02 08:58:12;;;;;;;1.02;0.90;;;;;;;-2.16;75.43;99750.53;5065832;28;20020;-66
2024/01/02 09:00:38;;;;;;;0.80;0.80;;;;;;;-2.33;76.47;99750.00;5065991;28;20020;-66
2024/01/02 09:03:05;;;;;;;1.80;1.70;;;;;;;-2.48;77.11;99738.50;5065711;28;20024;-66
2024/01/02 09:05:31;;;;;;;0.68;0.68;;;;;;;-2.45;76.99;99736.06;5066022;28;20047;-67
2024/01/02 09:07:56;;;;;;;0.65;0.65;;;;;;;-2.49;76.83;99742.69;5065950;28;20423;-66
2024/01/02 09:10:22;;;;;;;0.63;0.63;;;;;;;-2.37;76.53;99744.81;5065883;28;20025;-65
2024/01/02 09:12:47;;;;;;;0.75;0.75;;;;;;;-2.39;76.29;99753.16;5065751;28;20025;-66
2024/01/02 09:15:13;;;;;;;0.70;0.70;;;;;;;-2.47;76.13;99739.34;5047775;28;20024;-66
2024/01/02 09:17:38;;;;;;;5.55;2.67;;;;;;;-2.47;76.56;99741.88;5065427;28;20392;-66
2024/01/02 09:20:07;;;;;;;1.10;1.02;;;;;;;-2.65;77.23;99736.22;5065704;28;20017;-65
2024/01/02 09:22:32;;;;;;;1.08;0.98;;;;;;;-2.30;76.28;99762.81;5065326;28;20512;-66
2024/01/02 09:24:59;;;;;;;1.20;0.90;;;;;;;-2.24;75.08;99746.03;5065754;28;20101;-65
2024/01/02 09:27:28;;;;;;;0.98;0.98;;;;;;;-2.50;76.08;99751.16;5065599;28;20021;-66
2024/01/02 09:29:53;;;;;;;1.48;0.93;;;;;;;-2.50;75.88;99743.53;5065100;28;20025;-67
2024/01/02 09:32:19;;;;;;;1.42;1.27;;;;;;;-2.41;76.06;99813.28;5065521;28;20031;-67
2024/01/02 09:34:45;;;;;;;0.85;0.85;;;;;;;-2.34;75.24;99740.63;5065624;28;20025;-66
2024/01/02 09:37:10;;;;;;;0.85;0.85;;;;;;;-2.52;75.92;99750.22;5065630;28;20049;-66
2024/01/02 09:39:35;;;;;;;2.25;0.80;;;;;;;-2.64;76.35;99768.47;5065404;28;20024;-67
2024/01/02 09:42:19;;;;;;;0.68;0.68;;;;;;;-2.56;76.54;99753.47;5047445;28;20021;-66
2024/01/02 09:45:29;;;;;;;0.77;0.77;;;;;;;-2.25;74.89;99802.81;5064965;28;20032;-68
2024/01/02 09:48:23;;;;;;;1.17;1.17;;;;;;;-2.63;76.02;99728.66;5065321;28;20557;-67
2024/01/02 09:51:02;;;;;;;0.70;0.70;;;;;;;-2.57;76.64;99718.69;5065278;28;20037;-67
2024/01/02 09:53:43;;;;;;;1.00;1.00;;;;;;;-2.26;74.74;99734.09;5065368;28;20023;-66
2024/01/02 09:56:21;;;;;;;1.35;1.30;;;;;;;-2.66;76.17;99726.88;5065299;28;20115;-65
2024/01/02 09:59:00;;;;;;;0.82;0.82;;;;;;;-2.70;76.41;99745.34;5064888;28;20377;-66
2024/01/02 10:01:42;;;;;;;0.55;0.55;;;;;;;-2.76;77.24;99723.16;5065345;28;20035;-66
2024/01/02 10:04:41;;;;;;;1.05;1.02;;;;;;;-2.76;77.77;99718.06;5065005;28;20085;-65
2024/01/02 10:07:25;;;;;;;1.40;1.30;;;;;;;-2.74;78.19;99730.81;5065097;28;20058;-66
2024/01/02 10:09:58;;;;;;;0.80;0.80;;;;;;;-2.37;76.30;99727.00;5064628;28;20024;-66
2024/01/02 10:12:52;;;;;;;0.70;0.70;;;;;;;-2.48;76.45;99718.16;5064632;28;20049;-67
2024/01/02 10:15:51;;;;;;;0.93;0.85;;;;;;;-2.56;76.83;99732.28;5064729;28;20024;-67
2024/01/02 10:18:24;;;;;;;1.52;1.13;;;;;;;-2.76;77.39;99722.28;5064776;28;20066;-67
2024/01/02 10:21:23;;;;;;;1.20;0.95;;;;;;;-2.70;77.31;99716.56;5047536;28;20031;-67
2024/01/02 10:24:00;;;;;;;1.63;1.23;;;;;;;-2.79;77.46;99712.88;5064547;28;20021;-66
2024/01/02 10:26:27;;;;;;;1.20;1.02;;;;;;;-2.47;76.32;99716.44;5064773;28;20032;-66
2024/01/02 10:29:03;;;;;;;0.60;0.60;;;;;;;-2.78;76.66;99712.06;5066350;28;20037;-66
2024/01/02 10:31:46;;;;;;;0.73;0.73;;;;;;;-2.78;77.53;99713.75;5068810;28;20061;-67
2024/01/02 10:34:35;;;;;;;2.47;1.02;;;;;;;-2.62;76.10;99710.06;5050961;28;20035;-67
2024/01/02 10:37:05;;;;;;;0.77;0.77;;;;;;;-2.85;76.83;99710.13;5068734;28;20013;-66
2024/01/02 10:39:45;;;;;;;0.77;0.77;;;;;;;-2.89;76.84;99687.97;5068791;28;20025;-66
2024/01/02 10:42:41;;;;;;;0.80;0.80;;;;;;;-2.83;76.23;99703.44;5068691;28;20052;-66
2024/01/02 10:45:30;;;;;;;1.02;0.95;;;;;;;-2.77;76.44;99746.84;5068524;28;20021;-67
2024/01/02 10:48:25;;;;;;;1.17;0.82;;;;;;;-2.87;76.08;99719.38;5068668;28;20052;-68
2024/01/02 10:51:10;;;;;;;0.80;0.80;;;;;;;-2.79;76.00;99704.38;5068503;28;20021;-67
2024/01/02 10:53:50;;;;;;;0.95;0.95;;;;;;;-2.70;75.46;99703.84;5068486;28;20051;-66
2024/01/02 10:56:27;;;;;;;0.82;0.75;;;;;;;-2.89;75.87;99726.09;5068485;28;20040;-67
2024/01/02 10:58:55;;;;;;;0.77;0.77;;;;;;;-2.68;75.50;99702.19;5067962;28;20021;-66
2024/01/02 11:01:22;;;;;;;1.38;1.27;;;;;;;-2.91;76.08;99709.91;5068637;28;20028;-67
2024/01/02 11:04:27;;;;;;;0.50;0.50;;;;;;;-2.88;75.52;99695.66;5050104;28;20029;-66
2024/01/02 11:07:03;;;;;;;2.90;1.55;;;;;;;-3.00;76.17;99696.06;5037848;28;20142;-67
2024/01/02 11:09:36;;;;;;;2.25;1.20;;;;;;;-2.73;75.16;99696.97;5068134;28;20017;-68
2024/01/02 11:12:06;;;;;;;0.93;0.93;;;;;;;-2.71;74.24;99702.09;5068033;28;20020;-66
2024/01/02 11:14:33;;;;;;;0.50;0.50;;;;;;;-2.93;75.01;99686.13;5049775;28;20487;-67
2024/01/02 11:16:59;;;;;;;1.73;1.30;;;;;;;-2.75;74.64;99717.25;5067923;28;20045;-68
2024/01/02 11:19:33;;;;;;;0.57;0.57;;;;;;;-3.03;75.37;99685.81;5068084;28;20021;-68
2024/01/02 11:22:10;;;;;;;4.35;0.93;;;;;;;-3.04;75.86;99706.06;5049938;28;20025;-68
2024/01/02 11:24:44;;;;;;;0.60;0.60;;;;;;;-2.94;75.24;99692.88;5067852;28;20017;-68
2024/01/02 11:27:11;;;;;;;0.68;0.68;;;;;;;-3.01;75.15;99671.50;5067942;28;20170;-68
2024/01/02 11:29:41;;;;;;;1.08;1.02;;;;;;;-2.90;75.23;99682.03;5067382;28;20025;-67
2024/01/02 11:32:11;;;;;;;1.33;1.23;;;;;;;-2.82;74.79;99700.06;5067646;28;20053;-67
2024/01/02 11:35:00;;;;;;;0.80;0.80;;;;;;;-2.69;73.43;99685.25;5067684;28;20025;-67
2024/01/02 11:37:38;;;;;;;0.80;0.80;;;;;;;-2.85;73.83;99692.34;5067544;28;20028;-67